sensor_id;sensor_type;location;lat;lon;timestamp;temperature;humidity
46364;DHT22;32071;49.036;9.344;2022-08-19T00:01:39;19.50;99.90
46364;DHT22;32071;49.036;9.344;2022-08-19T00:04:08;19.50;99.90
46364;DHT22;32071;49.036;9.344;2022-08-19T00:06:35;19.50;99.90
46364;DHT22;32071;49.036;9.344;2022-08-19T00:09:04;19.50;99.90
46364;DHT22;32071;49.036;9.344;2022-08-19T00:11:31;19.50;99.90
46364;DHT22;32071;49.036;9.344;2022-08-19T00:13:56;19.50;99.90
46364;DHT22;32071;49.036;9.344;2022-08-19T00:16:24;19.50;99.90
46364;DHT22;32071;49.036;9.344;2022-08-19T00:18:49;19.50;99.90
46364;DHT22;32071;49.036;9.344;2022-08-19T00:21:15;19.50;99.90
46364;DHT22;32071;49.036;9.344;2022-08-19T00:23:41;19.40;99.90
46364;DHT22;32071;49.036;9.344;2022-08-19T00:26:10;19.30;99.90
46364;DHT22;32071;49.036;9.344;2022-08-19T00:28:36;19.30;99.90
46364;DHT22;32071;49.036;9.344;2022-08-19T00:31:03;19.30;99.90
46364;DHT22;32071;49.036;9.344;2022-08-19T00:33:30;19.30;99.90
46364;DHT22;32071;49.036;9.344;2022-08-19T00:36:02;19.30;99.90
46364;DHT22;32071;49.036;9.344;2022-08-19T00:38:30;19.30;99.90
46364;DHT22;32071;49.036;9.344;2022-08-19T00:40:56;19.30;99.90
46364;DHT22;32071;49.036;9.344;2022-08-19T00:43:23;19.20;99.90
46364;DHT22;32071;49.036;9.344;2022-08-19T00:45:50;19.20;99.90
46364;DHT22;32071;49.036;9.344;2022-08-19T00:48:17;19.20;99.90
46364;DHT22;32071;49.036;9.344;2022-08-19T00:50:45;19.20;99.90
46364;DHT22;32071;49.036;9.344;2022-08-19T00:53:16;19.20;99.90
46364;DHT22;32071;49.036;9.344;2022-08-19T00:55:48;19.20;99.90
46364;DHT22;32071;49.036;9.344;2022-08-19T00:58:17;19.20;99.90
46364;DHT22;32071;49.036;9.344;2022-08-19T01:00:45;19.20;99.90
46364;DHT22;32071;49.036;9.344;2022-08-19T01:03:14;19.30;99.90
46364;DHT22;32071;49.036;9.344;2022-08-19T01:05:43;19.30;99.90
46364;DHT22;32071;49.036;9.344;2022-08-19T01:08:09;19.20;99.90
46364;DHT22;32071;49.036;9.344;2022-08-19T01:10:43;19.20;99.90
46364;DHT22;32071;49.036;9.344;2022-08-19T01:13:11;19.10;99.90
46364;DHT22;32071;49.036;9.344;2022-08-19T01:15:43;19.10;99.90
46364;DHT22;32071;49.036;9.344;2022-08-19T01:18:12;19.20;99.90
46364;DHT22;32071;49.036;9.344;2022-08-19T01:20:40;19.20;99.90
46364;DHT22;32071;49.036;9.344;2022-08-19T01:23:06;19.20;99.90
46364;DHT22;32071;49.036;9.344;2022-08-19T01:25:40;19.20;99.90
46364;DHT22;32071;49.036;9.344;2022-08-19T01:28:06;19.20;99.90
46364;DHT22;32071;49.036;9.344;2022-08-19T01:30:34;19.20;99.90
46364;DHT22;32071;49.036;9.344;2022-08-19T01:33:00;19.20;99.90
46364;DHT22;32071;49.036;9.344;2022-08-19T01:35:28;19.10;99.90
46364;DHT22;32071;49.036;9.344;2022-08-19T01:38:00;19.20;99.90
46364;DHT22;32071;49.036;9.344;2022-08-19T01:40:29;19.10;99.90
46364;DHT22;32071;49.036;9.344;2022-08-19T01:42:57;19.10;99.90
46364;DHT22;32071;49.036;9.344;2022-08-19T01:45:25;19.10;99.90
46364;DHT22;32071;49.036;9.344;2022-08-19T01:47:51;19.10;99.90
46364;DHT22;32071;49.036;9.344;2022-08-19T01:50:17;19.10;99.90
46364;DHT22;32071;49.036;9.344;2022-08-19T01:52:43;19.10;99.90
46364;DHT22;32071;49.036;9.344;2022-08-19T01:55:12;19.10;99.90
46364;DHT22;32071;49.036;9.344;2022-08-19T01:57:39;19.10;99.90
46364;DHT22;32071;49.036;9.344;2022-08-19T02:00:11;19.10;99.90
46364;DHT22;32071;49.036;9.344;2022-08-19T02:02:37;19.10;99.90
46364;DHT22;32071;49.036;9.344;2022-08-19T02:05:03;19.10;99.90
46364;DHT22;32071;49.036;9.344;2022-08-19T02:07:29;19.00;99.90
46364;DHT22;32071;49.036;9.344;2022-08-19T02:09:55;19.00;99.90
46364;DHT22;32071;49.036;9.344;2022-08-19T02:12:21;19.00;99.90
46364;DHT22;32071;49.036;9.344;2022-08-19T02:14:47;19.10;99.90
46364;DHT22;32071;49.036;9.344;2022-08-19T02:17:13;19.00;99.90
46364;DHT22;32071;49.036;9.344;2022-08-19T02:19:39;19.00;99.90
46364;DHT22;32071;49.036;9.344;2022-08-19T02:22:04;18.90;99.90
46364;DHT22;32071;49.036;9.344;2022-08-19T02:24:30;18.80;99.90
46364;DHT22;32071;49.036;9.344;2022-08-19T02:26:56;18.80;99.90
46364;DHT22;32071;49.036;9.344;2022-08-19T02:29:24;18.80;99.90
46364;DHT22;32071;49.036;9.344;2022-08-19T02:31:49;18.80;99.90
46364;DHT22;32071;49.036;9.344;2022-08-19T02:34:16;18.80;99.90
46364;DHT22;32071;49.036;9.344;2022-08-19T02:36:42;18.80;99.90
46364;DHT22;32071;49.036;9.344;2022-08-19T02:39:07;18.70;99.90
46364;DHT22;32071;49.036;9.344;2022-08-19T02:41:34;18.70;99.90
46364;DHT22;32071;49.036;9.344;2022-08-19T02:44:01;18.70;99.90
46364;DHT22;32071;49.036;9.344;2022-08-19T02:46:29;18.60;99.90
46364;DHT22;32071;49.036;9.344;2022-08-19T02:48:59;18.60;99.90
46364;DHT22;32071;49.036;9.344;2022-08-19T02:51:31;18.60;99.90
46364;DHT22;32071;49.036;9.344;2022-08-19T02:53:57;18.70;99.90
46364;DHT22;32071;49.036;9.344;2022-08-19T02:56:25;18.70;99.90
46364;DHT22;32071;49.036;9.344;2022-08-19T02:58:53;18.70;99.90
46364;DHT22;32071;49.036;9.344;2022-08-19T03:01:24;18.70;99.90
46364;DHT22;32071;49.036;9.344;2022-08-19T03:03:51;18.70;99.90
46364;DHT22;32071;49.036;9.344;2022-08-19T03:06:17;18.70;99.90
46364;DHT22;32071;49.036;9.344;2022-08-19T03:08:45;18.70;99.90
46364;DHT22;32071;49.036;9.344;2022-08-19T03:11:20;18.70;99.90
46364;DHT22;32071;49.036;9.344;2022-08-19T03:13:46;18.70;99.90
46364;DHT22;32071;49.036;9.344;2022-08-19T03:16:14;18.60;99.90
46364;DHT22;32071;49.036;9.344;2022-08-19T03:18:40;18.60;99.90
46364;DHT22;32071;49.036;9.344;2022-08-19T03:21:06;18.60;99.90
46364;DHT22;32071;49.036;9.344;2022-08-19T03:23:32;18.60;99.90
46364;DHT22;32071;49.036;9.344;2022-08-19T03:25:57;18.60;99.90
46364;DHT22;32071;49.036;9.344;2022-08-19T03:28:23;18.60;99.90
46364;DHT22;32071;49.036;9.344;2022-08-19T03:31:19;18.60;99.90
46364;DHT22;32071;49.036;9.344;2022-08-19T03:33:48;18.60;99.90
46364;DHT22;32071;49.036;9.344;2022-08-19T03:36:20;18.60;99.90
46364;DHT22;32071;49.036;9.344;2022-08-19T03:38:51;18.60;99.90
46364;DHT22;32071;49.036;9.344;2022-08-19T03:41:37;18.60;99.90
46364;DHT22;32071;49.036;9.344;2022-08-19T03:44:04;18.50;99.90
46364;DHT22;32071;49.036;9.344;2022-08-19T03:46:32;18.60;99.90
46364;DHT22;32071;49.036;9.344;2022-08-19T03:48:59;18.50;99.90
46364;DHT22;32071;49.036;9.344;2022-08-19T03:51:31;18.50;99.90
46364;DHT22;32071;49.036;9.344;2022-08-19T03:53:59;18.50;99.90
46364;DHT22;32071;49.036;9.344;2022-08-19T03:56:25;18.50;99.90
46364;DHT22;32071;49.036;9.344;2022-08-19T03:58:52;18.60;99.90
46364;DHT22;32071;49.036;9.344;2022-08-19T04:01:21;18.60;99.90
46364;DHT22;32071;49.036;9.344;2022-08-19T04:03:48;18.60;99.90
46364;DHT22;32071;49.036;9.344;2022-08-19T04:06:22;18.60;99.90
46364;DHT22;32071;49.036;9.344;2022-08-19T04:08:50;18.50;99.90
46364;DHT22;32071;49.036;9.344;2022-08-19T04:11:19;18.50;99.90
46364;DHT22;32071;49.036;9.344;2022-08-19T04:13:50;18.50;99.90
46364;DHT22;32071;49.036;9.344;2022-08-19T04:16:19;18.50;99.90
46364;DHT22;32071;49.036;9.344;2022-08-19T04:18:45;18.50;99.90
46364;DHT22;32071;49.036;9.344;2022-08-19T04:21:25;18.40;99.90
46364;DHT22;32071;49.036;9.344;2022-08-19T04:23:52;18.40;99.90
46364;DHT22;32071;49.036;9.344;2022-08-19T04:26:25;18.40;99.90
46364;DHT22;32071;49.036;9.344;2022-08-19T04:28:51;18.40;99.90
46364;DHT22;32071;49.036;9.344;2022-08-19T04:31:19;18.40;99.90
46364;DHT22;32071;49.036;9.344;2022-08-19T04:33:46;18.40;99.90
46364;DHT22;32071;49.036;9.344;2022-08-19T04:36:23;18.40;99.90
46364;DHT22;32071;49.036;9.344;2022-08-19T04:38:53;18.40;99.90
46364;DHT22;32071;49.036;9.344;2022-08-19T04:41:19;18.40;99.90
46364;DHT22;32071;49.036;9.344;2022-08-19T04:44:04;18.40;99.90
46364;DHT22;32071;49.036;9.344;2022-08-19T04:46:30;18.40;99.90
46364;DHT22;32071;49.036;9.344;2022-08-19T04:49:00;18.40;99.90
46364;DHT22;32071;49.036;9.344;2022-08-19T04:51:26;18.40;99.90
46364;DHT22;32071;49.036;9.344;2022-08-19T04:53:52;18.40;99.90
46364;DHT22;32071;49.036;9.344;2022-08-19T04:56:18;18.40;99.90
46364;DHT22;32071;49.036;9.344;2022-08-19T04:58:46;18.40;99.90
46364;DHT22;32071;49.036;9.344;2022-08-19T05:01:18;18.40;99.90
46364;DHT22;32071;49.036;9.344;2022-08-19T05:03:44;18.40;99.90
46364;DHT22;32071;49.036;9.344;2022-08-19T05:06:12;18.40;99.90
46364;DHT22;32071;49.036;9.344;2022-08-19T05:08:40;18.50;99.90
46364;DHT22;32071;49.036;9.344;2022-08-19T05:11:12;18.60;99.90
46364;DHT22;32071;49.036;9.344;2022-08-19T05:13:38;18.60;99.90
46364;DHT22;32071;49.036;9.344;2022-08-19T05:16:05;18.70;99.90
46364;DHT22;32071;49.036;9.344;2022-08-19T05:18:31;18.70;99.90
46364;DHT22;32071;49.036;9.344;2022-08-19T05:21:18;18.80;99.90
46364;DHT22;32071;49.036;9.344;2022-08-19T05:24:04;18.90;99.90
46364;DHT22;32071;49.036;9.344;2022-08-19T05:26:33;19.00;99.90
46364;DHT22;32071;49.036;9.344;2022-08-19T05:28:59;19.00;99.90
46364;DHT22;32071;49.036;9.344;2022-08-19T05:31:25;19.10;99.90
46364;DHT22;32071;49.036;9.344;2022-08-19T05:33:50;19.10;99.90
46364;DHT22;32071;49.036;9.344;2022-08-19T05:36:16;19.20;99.90
46364;DHT22;32071;49.036;9.344;2022-08-19T05:38:41;19.20;99.90
46364;DHT22;32071;49.036;9.344;2022-08-19T05:41:08;19.20;99.90
46364;DHT22;32071;49.036;9.344;2022-08-19T05:43:34;19.30;99.90
46364;DHT22;32071;49.036;9.344;2022-08-19T05:46:00;19.30;99.90
46364;DHT22;32071;49.036;9.344;2022-08-19T05:48:25;19.40;99.90
46364;DHT22;32071;49.036;9.344;2022-08-19T05:50:52;19.40;99.90
46364;DHT22;32071;49.036;9.344;2022-08-19T05:53:18;19.50;99.90
46364;DHT22;32071;49.036;9.344;2022-08-19T05:55:44;19.50;99.90
46364;DHT22;32071;49.036;9.344;2022-08-19T05:58:09;19.60;99.90
46364;DHT22;32071;49.036;9.344;2022-08-19T06:00:36;19.60;99.90
46364;DHT22;32071;49.036;9.344;2022-08-19T06:03:03;19.70;99.90
46364;DHT22;32071;49.036;9.344;2022-08-19T06:05:32;19.70;99.90
46364;DHT22;32071;49.036;9.344;2022-08-19T06:07:57;19.70;99.90
46364;DHT22;32071;49.036;9.344;2022-08-19T06:10:24;19.70;99.90
46364;DHT22;32071;49.036;9.344;2022-08-19T06:12:51;19.70;99.90
46364;DHT22;32071;49.036;9.344;2022-08-19T06:15:17;19.70;99.90
46364;DHT22;32071;49.036;9.344;2022-08-19T06:17:43;19.80;99.90
46364;DHT22;32071;49.036;9.344;2022-08-19T06:20:13;19.80;99.90
46364;DHT22;32071;49.036;9.344;2022-08-19T06:22:41;19.80;99.90
46364;DHT22;32071;49.036;9.344;2022-08-19T06:25:08;19.80;99.90
46364;DHT22;32071;49.036;9.344;2022-08-19T06:27:34;19.80;99.90
46364;DHT22;32071;49.036;9.344;2022-08-19T06:30:02;19.80;99.90
46364;DHT22;32071;49.036;9.344;2022-08-19T06:32:28;19.90;99.90
46364;DHT22;32071;49.036;9.344;2022-08-19T06:34:54;20.00;99.90
46364;DHT22;32071;49.036;9.344;2022-08-19T06:37:20;20.00;99.90
46364;DHT22;32071;49.036;9.344;2022-08-19T06:39:47;20.10;99.90
46364;DHT22;32071;49.036;9.344;2022-08-19T06:42:13;20.20;99.90
46364;DHT22;32071;49.036;9.344;2022-08-19T06:44:42;20.30;99.90
46364;DHT22;32071;49.036;9.344;2022-08-19T06:47:11;20.40;99.90
46364;DHT22;32071;49.036;9.344;2022-08-19T06:49:37;20.50;99.90
46364;DHT22;32071;49.036;9.344;2022-08-19T06:52:04;20.60;99.90
46364;DHT22;32071;49.036;9.344;2022-08-19T06:54:30;20.60;99.90
46364;DHT22;32071;49.036;9.344;2022-08-19T06:57:00;20.70;99.90
46364;DHT22;32071;49.036;9.344;2022-08-19T06:59:30;20.70;99.90
46364;DHT22;32071;49.036;9.344;2022-08-19T07:02:00;20.70;99.90
46364;DHT22;32071;49.036;9.344;2022-08-19T07:04:30;20.80;99.90
46364;DHT22;32071;49.036;9.344;2022-08-19T07:07:17;20.90;99.90
46364;DHT22;32071;49.036;9.344;2022-08-19T07:09:44;21.00;99.90
46364;DHT22;32071;49.036;9.344;2022-08-19T07:12:11;21.10;99.90
46364;DHT22;32071;49.036;9.344;2022-08-19T07:14:39;21.20;99.90
46364;DHT22;32071;49.036;9.344;2022-08-19T07:17:08;21.20;99.90
46364;DHT22;32071;49.036;9.344;2022-08-19T07:19:35;21.30;99.90
46364;DHT22;32071;49.036;9.344;2022-08-19T07:22:03;21.40;99.90
46364;DHT22;32071;49.036;9.344;2022-08-19T07:24:30;21.30;99.90
46364;DHT22;32071;49.036;9.344;2022-08-19T07:26:59;21.30;99.90
46364;DHT22;32071;49.036;9.344;2022-08-19T07:29:26;21.30;99.90
46364;DHT22;32071;49.036;9.344;2022-08-19T07:31:53;21.30;99.90
46364;DHT22;32071;49.036;9.344;2022-08-19T07:34:22;21.10;99.90
46364;DHT22;32071;49.036;9.344;2022-08-19T07:36:48;21.10;99.90
46364;DHT22;32071;49.036;9.344;2022-08-19T07:39:20;21.00;99.90
46364;DHT22;32071;49.036;9.344;2022-08-19T07:41:46;21.10;99.90
46364;DHT22;32071;49.036;9.344;2022-08-19T07:44:13;21.10;99.90
46364;DHT22;32071;49.036;9.344;2022-08-19T07:46:42;21.20;99.90
46364;DHT22;32071;49.036;9.344;2022-08-19T07:49:10;21.20;99.90
46364;DHT22;32071;49.036;9.344;2022-08-19T07:51:56;21.30;99.90
46364;DHT22;32071;49.036;9.344;2022-08-19T07:54:23;21.40;99.90
46364;DHT22;32071;49.036;9.344;2022-08-19T07:56:50;21.50;99.90
46364;DHT22;32071;49.036;9.344;2022-08-19T07:59:17;21.50;99.90
46364;DHT22;32071;49.036;9.344;2022-08-19T08:01:44;21.40;99.90
46364;DHT22;32071;49.036;9.344;2022-08-19T08:04:10;21.40;99.90
46364;DHT22;32071;49.036;9.344;2022-08-19T08:06:54;21.30;99.90
46364;DHT22;32071;49.036;9.344;2022-08-19T08:09:41;21.30;99.90
46364;DHT22;32071;49.036;9.344;2022-08-19T08:12:10;21.30;99.90
46364;DHT22;32071;49.036;9.344;2022-08-19T08:14:41;21.20;99.90
46364;DHT22;32071;49.036;9.344;2022-08-19T08:17:08;21.20;99.90
46364;DHT22;32071;49.036;9.344;2022-08-19T08:19:34;21.20;99.90
46364;DHT22;32071;49.036;9.344;2022-08-19T08:22:01;21.30;99.90
46364;DHT22;32071;49.036;9.344;2022-08-19T08:24:28;21.40;99.90
46364;DHT22;32071;49.036;9.344;2022-08-19T08:26:57;21.50;99.90
46364;DHT22;32071;49.036;9.344;2022-08-19T08:29:23;21.60;99.90
46364;DHT22;32071;49.036;9.344;2022-08-19T08:31:49;21.60;99.90
46364;DHT22;32071;49.036;9.344;2022-08-19T08:34:14;21.50;99.90
46364;DHT22;32071;49.036;9.344;2022-08-19T08:36:43;21.60;99.90
46364;DHT22;32071;49.036;9.344;2022-08-19T08:39:13;21.60;99.90
46364;DHT22;32071;49.036;9.344;2022-08-19T08:44:17;21.80;99.90
46364;DHT22;32071;49.036;9.344;2022-08-19T08:46:52;21.90;99.90
46364;DHT22;32071;49.036;9.344;2022-08-19T08:49:33;22.00;99.90
46364;DHT22;32071;49.036;9.344;2022-08-19T08:52:10;22.10;99.90
46364;DHT22;32071;49.036;9.344;2022-08-19T08:54:46;22.20;99.90
46364;DHT22;32071;49.036;9.344;2022-08-19T08:57:15;22.30;99.90
46364;DHT22;32071;49.036;9.344;2022-08-19T08:59:45;22.40;99.90
46364;DHT22;32071;49.036;9.344;2022-08-19T09:02:19;22.50;99.90
46364;DHT22;32071;49.036;9.344;2022-08-19T09:04:46;22.50;99.90
46364;DHT22;32071;49.036;9.344;2022-08-19T09:10:14;22.70;99.90
46364;DHT22;32071;49.036;9.344;2022-08-19T09:15:29;22.90;99.90
46364;DHT22;32071;49.036;9.344;2022-08-19T09:18:00;22.90;99.90
46364;DHT22;32071;49.036;9.344;2022-08-19T09:20:27;22.80;99.90
46364;DHT22;32071;49.036;9.344;2022-08-19T09:22:54;22.80;99.90
46364;DHT22;32071;49.036;9.344;2022-08-19T09:25:21;22.80;99.90
46364;DHT22;32071;49.036;9.344;2022-08-19T09:27:50;22.80;99.90
46364;DHT22;32071;49.036;9.344;2022-08-19T09:30:22;22.90;99.90
46364;DHT22;32071;49.036;9.344;2022-08-19T09:32:49;22.90;99.90
46364;DHT22;32071;49.036;9.344;2022-08-19T09:35:17;22.70;99.90
46364;DHT22;32071;49.036;9.344;2022-08-19T09:37:43;22.70;99.90
46364;DHT22;32071;49.036;9.344;2022-08-19T09:40:09;22.60;99.90
46364;DHT22;32071;49.036;9.344;2022-08-19T09:42:36;22.60;99.90
46364;DHT22;32071;49.036;9.344;2022-08-19T09:45:02;22.50;99.90
46364;DHT22;32071;49.036;9.344;2022-08-19T09:47:28;22.50;99.90
46364;DHT22;32071;49.036;9.344;2022-08-19T09:49:54;22.60;99.90
46364;DHT22;32071;49.036;9.344;2022-08-19T09:52:20;22.60;99.90
46364;DHT22;32071;49.036;9.344;2022-08-19T09:54:46;22.60;99.90
46364;DHT22;32071;49.036;9.344;2022-08-19T09:57:12;22.60;99.90
46364;DHT22;32071;49.036;9.344;2022-08-19T09:59:39;22.70;99.90
46364;DHT22;32071;49.036;9.344;2022-08-19T10:02:05;22.70;99.90
46364;DHT22;32071;49.036;9.344;2022-08-19T10:04:31;22.80;99.90
46364;DHT22;32071;49.036;9.344;2022-08-19T10:07:15;22.80;99.90
46364;DHT22;32071;49.036;9.344;2022-08-19T10:09:41;22.70;99.90
46364;DHT22;32071;49.036;9.344;2022-08-19T10:12:07;22.70;99.90
46364;DHT22;32071;49.036;9.344;2022-08-19T10:14:33;22.60;99.90
46364;DHT22;32071;49.036;9.344;2022-08-19T10:16:59;22.70;99.90
46364;DHT22;32071;49.036;9.344;2022-08-19T10:19:26;22.70;99.90
46364;DHT22;32071;49.036;9.344;2022-08-19T10:21:53;22.80;99.90
46364;DHT22;32071;49.036;9.344;2022-08-19T10:24:19;22.90;99.90
46364;DHT22;32071;49.036;9.344;2022-08-19T10:26:45;23.00;99.90
46364;DHT22;32071;49.036;9.344;2022-08-19T10:29:13;23.20;99.90
46364;DHT22;32071;49.036;9.344;2022-08-19T10:31:41;23.40;99.90
46364;DHT22;32071;49.036;9.344;2022-08-19T10:34:07;23.60;99.90
46364;DHT22;32071;49.036;9.344;2022-08-19T10:36:36;23.60;99.90
46364;DHT22;32071;49.036;9.344;2022-08-19T10:39:06;23.60;99.90
46364;DHT22;32071;49.036;9.344;2022-08-19T10:41:34;23.70;99.90
46364;DHT22;32071;49.036;9.344;2022-08-19T10:44:08;23.80;99.90
46364;DHT22;32071;49.036;9.344;2022-08-19T10:46:37;24.20;99.90
46364;DHT22;32071;49.036;9.344;2022-08-19T10:49:04;24.40;99.90
46364;DHT22;32071;49.036;9.344;2022-08-19T10:51:31;24.40;99.90
46364;DHT22;32071;49.036;9.344;2022-08-19T10:54:16;24.50;99.90
46364;DHT22;32071;49.036;9.344;2022-08-19T10:56:42;24.60;99.90
46364;DHT22;32071;49.036;9.344;2022-08-19T10:59:24;24.40;99.90
46364;DHT22;32071;49.036;9.344;2022-08-19T11:01:51;24.30;99.90
46364;DHT22;32071;49.036;9.344;2022-08-19T11:04:18;24.20;99.90
46364;DHT22;32071;49.036;9.344;2022-08-19T11:06:46;24.10;99.90
46364;DHT22;32071;49.036;9.344;2022-08-19T11:09:17;24.10;99.90
46364;DHT22;32071;49.036;9.344;2022-08-19T11:11:43;24.20;99.90
46364;DHT22;32071;49.036;9.344;2022-08-19T11:14:11;24.20;99.90
46364;DHT22;32071;49.036;9.344;2022-08-19T11:16:39;24.40;99.90
46364;DHT22;32071;49.036;9.344;2022-08-19T11:19:07;24.50;99.90
46364;DHT22;32071;49.036;9.344;2022-08-19T11:21:36;24.60;99.90
46364;DHT22;32071;49.036;9.344;2022-08-19T11:24:09;24.80;99.90
46364;DHT22;32071;49.036;9.344;2022-08-19T11:26:36;25.00;99.90
46364;DHT22;32071;49.036;9.344;2022-08-19T11:29:03;25.00;99.90
46364;DHT22;32071;49.036;9.344;2022-08-19T11:31:35;25.00;99.90
46364;DHT22;32071;49.036;9.344;2022-08-19T11:34:03;25.10;99.90
46364;DHT22;32071;49.036;9.344;2022-08-19T11:36:29;25.00;99.90
46364;DHT22;32071;49.036;9.344;2022-08-19T11:38:56;24.90;99.90
46364;DHT22;32071;49.036;9.344;2022-08-19T11:41:23;24.90;99.90
46364;DHT22;32071;49.036;9.344;2022-08-19T11:43:49;25.10;99.90
46364;DHT22;32071;49.036;9.344;2022-08-19T11:46:16;25.30;99.90
46364;DHT22;32071;49.036;9.344;2022-08-19T11:48:43;25.50;99.90
46364;DHT22;32071;49.036;9.344;2022-08-19T11:51:15;25.70;99.90
46364;DHT22;32071;49.036;9.344;2022-08-19T11:53:41;25.80;99.50
46364;DHT22;32071;49.036;9.344;2022-08-19T11:56:08;25.50;99.80
46364;DHT22;32071;49.036;9.344;2022-08-19T11:58:35;25.50;99.90
46364;DHT22;32071;49.036;9.344;2022-08-19T12:01:01;25.60;99.90
46364;DHT22;32071;49.036;9.344;2022-08-19T12:03:27;25.40;99.10
46364;DHT22;32071;49.036;9.344;2022-08-19T12:05:53;25.30;99.50
46364;DHT22;32071;49.036;9.344;2022-08-19T12:08:19;25.20;99.60
46364;DHT22;32071;49.036;9.344;2022-08-19T12:10:45;25.00;99.50
46364;DHT22;32071;49.036;9.344;2022-08-19T12:13:11;25.00;99.80
46364;DHT22;32071;49.036;9.344;2022-08-19T12:15:40;25.00;99.00
46364;DHT22;32071;49.036;9.344;2022-08-19T12:18:07;25.00;99.10
46364;DHT22;32071;49.036;9.344;2022-08-19T12:20:37;24.90;98.80
46364;DHT22;32071;49.036;9.344;2022-08-19T12:23:04;24.80;99.00
46364;DHT22;32071;49.036;9.344;2022-08-19T12:25:29;24.90;98.80
46364;DHT22;32071;49.036;9.344;2022-08-19T12:27:56;24.90;98.70
46364;DHT22;32071;49.036;9.344;2022-08-19T12:30:21;25.00;98.70
46364;DHT22;32071;49.036;9.344;2022-08-19T12:32:47;25.10;98.50
46364;DHT22;32071;49.036;9.344;2022-08-19T12:35:13;25.20;98.10
46364;DHT22;32071;49.036;9.344;2022-08-19T12:37:39;25.30;97.60
46364;DHT22;32071;49.036;9.344;2022-08-19T12:40:10;25.10;97.70
46364;DHT22;32071;49.036;9.344;2022-08-19T12:42:38;25.10;97.90
46364;DHT22;32071;49.036;9.344;2022-08-19T12:45:07;25.00;97.80
46364;DHT22;32071;49.036;9.344;2022-08-19T12:47:32;25.00;97.70
46364;DHT22;32071;49.036;9.344;2022-08-19T12:49:58;24.80;98.00
46364;DHT22;32071;49.036;9.344;2022-08-19T12:52:25;24.80;98.10
46364;DHT22;32071;49.036;9.344;2022-08-19T12:54:53;24.90;98.20
46364;DHT22;32071;49.036;9.344;2022-08-19T12:57:20;24.90;97.90
46364;DHT22;32071;49.036;9.344;2022-08-19T12:59:46;25.00;97.90
46364;DHT22;32071;49.036;9.344;2022-08-19T13:02:11;25.20;97.40
46364;DHT22;32071;49.036;9.344;2022-08-19T13:04:37;25.40;97.50
46364;DHT22;32071;49.036;9.344;2022-08-19T13:07:06;25.60;97.70
46364;DHT22;32071;49.036;9.344;2022-08-19T13:09:33;26.00;97.00
46364;DHT22;32071;49.036;9.344;2022-08-19T13:11:59;25.90;96.40
46364;DHT22;32071;49.036;9.344;2022-08-19T13:14:27;25.80;96.10
46364;DHT22;32071;49.036;9.344;2022-08-19T13:16:56;25.70;96.40
46364;DHT22;32071;49.036;9.344;2022-08-19T13:19:22;25.60;97.00
46364;DHT22;32071;49.036;9.344;2022-08-19T13:21:50;25.50;95.90
46364;DHT22;32071;49.036;9.344;2022-08-19T13:24:16;25.50;96.60
46364;DHT22;32071;49.036;9.344;2022-08-19T13:26:42;25.50;96.50
46364;DHT22;32071;49.036;9.344;2022-08-19T13:29:08;25.60;96.50
46364;DHT22;32071;49.036;9.344;2022-08-19T13:31:52;25.60;96.10
46364;DHT22;32071;49.036;9.344;2022-08-19T13:34:36;25.70;96.50
46364;DHT22;32071;49.036;9.344;2022-08-19T13:37:03;25.90;96.00
46364;DHT22;32071;49.036;9.344;2022-08-19T13:39:33;26.20;97.10
46364;DHT22;32071;49.036;9.344;2022-08-19T13:41:59;26.40;96.00
46364;DHT22;32071;49.036;9.344;2022-08-19T13:44:26;26.50;95.30
46364;DHT22;32071;49.036;9.344;2022-08-19T13:46:55;26.50;96.00
46364;DHT22;32071;49.036;9.344;2022-08-19T13:49:24;26.20;96.50
46364;DHT22;32071;49.036;9.344;2022-08-19T13:51:50;25.80;96.10
46364;DHT22;32071;49.036;9.344;2022-08-19T13:54:15;25.40;96.30
46364;DHT22;32071;49.036;9.344;2022-08-19T13:56:43;25.20;97.60
46364;DHT22;32071;49.036;9.344;2022-08-19T13:59:09;25.00;98.10
46364;DHT22;32071;49.036;9.344;2022-08-19T14:01:36;24.80;99.50
46364;DHT22;32071;49.036;9.344;2022-08-19T14:04:03;24.60;99.90
46364;DHT22;32071;49.036;9.344;2022-08-19T14:06:28;24.40;99.90
46364;DHT22;32071;49.036;9.344;2022-08-19T14:08:54;24.20;99.90
46364;DHT22;32071;49.036;9.344;2022-08-19T14:11:20;24.00;99.90
46364;DHT22;32071;49.036;9.344;2022-08-19T14:13:45;23.80;99.90
46364;DHT22;32071;49.036;9.344;2022-08-19T14:16:13;23.50;99.90
46364;DHT22;32071;49.036;9.344;2022-08-19T14:18:39;23.20;99.90
46364;DHT22;32071;49.036;9.344;2022-08-19T14:21:05;23.00;99.90
46364;DHT22;32071;49.036;9.344;2022-08-19T14:23:32;22.90;99.90
46364;DHT22;32071;49.036;9.344;2022-08-19T14:26:10;22.90;99.90
46364;DHT22;32071;49.036;9.344;2022-08-19T14:28:37;22.70;99.90
46364;DHT22;32071;49.036;9.344;2022-08-19T14:31:02;22.70;99.90
46364;DHT22;32071;49.036;9.344;2022-08-19T14:33:28;22.70;99.90
46364;DHT22;32071;49.036;9.344;2022-08-19T14:35:53;22.60;99.90
46364;DHT22;32071;49.036;9.344;2022-08-19T14:38:19;22.50;99.90
46364;DHT22;32071;49.036;9.344;2022-08-19T14:40:45;22.40;99.90
46364;DHT22;32071;49.036;9.344;2022-08-19T14:43:11;22.40;99.90
46364;DHT22;32071;49.036;9.344;2022-08-19T14:45:39;22.40;99.90
46364;DHT22;32071;49.036;9.344;2022-08-19T14:48:06;22.30;99.90
46364;DHT22;32071;49.036;9.344;2022-08-19T14:50:33;22.10;99.90
46364;DHT22;32071;49.036;9.344;2022-08-19T14:53:01;22.00;99.90
46364;DHT22;32071;49.036;9.344;2022-08-19T14:55:28;21.80;99.90
46364;DHT22;32071;49.036;9.344;2022-08-19T14:57:54;21.80;99.90
46364;DHT22;32071;49.036;9.344;2022-08-19T15:00:19;21.70;99.90
46364;DHT22;32071;49.036;9.344;2022-08-19T15:02:46;21.70;99.90
46364;DHT22;32071;49.036;9.344;2022-08-19T15:05:12;21.70;99.90
46364;DHT22;32071;49.036;9.344;2022-08-19T15:07:38;21.70;99.90
46364;DHT22;32071;49.036;9.344;2022-08-19T15:10:06;21.60;99.90
46364;DHT22;32071;49.036;9.344;2022-08-19T15:12:34;21.60;99.90
46364;DHT22;32071;49.036;9.344;2022-08-19T15:14:59;21.70;99.90
46364;DHT22;32071;49.036;9.344;2022-08-19T15:17:25;21.80;99.90
46364;DHT22;32071;49.036;9.344;2022-08-19T15:19:51;21.70;99.90
46364;DHT22;32071;49.036;9.344;2022-08-19T15:22:16;21.70;99.90
46364;DHT22;32071;49.036;9.344;2022-08-19T15:24:42;21.60;99.90
46364;DHT22;32071;49.036;9.344;2022-08-19T15:27:11;21.60;99.90
46364;DHT22;32071;49.036;9.344;2022-08-19T15:29:38;21.60;99.90
46364;DHT22;32071;49.036;9.344;2022-08-19T15:32:04;21.60;99.90
46364;DHT22;32071;49.036;9.344;2022-08-19T15:34:31;21.70;99.90
46364;DHT22;32071;49.036;9.344;2022-08-19T15:36:57;21.70;99.90
46364;DHT22;32071;49.036;9.344;2022-08-19T15:39:24;21.70;99.90
46364;DHT22;32071;49.036;9.344;2022-08-19T15:41:49;21.70;99.90
46364;DHT22;32071;49.036;9.344;2022-08-19T15:44:17;21.80;99.90